sensor_id;sensor_type;location;lat;lon;timestamp;P1;durP1;ratioP1;P2;durP2;ratioP2
7933;SDS011;4012;48.896;9.192;2023-04-01T00:00:52;0.60;;;0.60;;
7933;SDS011;4012;48.896;9.192;2023-04-01T00:03:19;0.60;;;0.60;;
7933;SDS011;4012;48.896;9.192;2023-04-01T00:05:45;2.90;;;0.90;;
7933;SDS011;4012;48.896;9.192;2023-04-01T00:08:11;1.13;;;0.70;;
7933;SDS011;4012;48.896;9.192;2023-04-01T00:10:37;1.10;;;0.80;;
7933;SDS011;4012;48.896;9.192;2023-04-01T00:13:02;3.23;;;0.77;;
7933;SDS011;4012;48.896;9.192;2023-04-01T00:15:28;1.63;;;0.53;;
7933;SDS011;4012;48.896;9.192;2023-04-01T00:17:54;0.87;;;0.63;;
7933;SDS011;4012;48.896;9.192;2023-04-01T00:20:20;0.83;;;0.70;;
7933;SDS011;4012;48.896;9.192;2023-04-01T00:22:46;1.47;;;0.77;;
7933;SDS011;4012;48.896;9.192;2023-04-01T00:25:11;0.97;;;0.80;;
7933;SDS011;4012;48.896;9.192;2023-04-01T00:27:37;1.13;;;0.73;;
7933;SDS011;4012;48.896;9.192;2023-04-01T00:30:02;1.80;;;0.80;;
7933;SDS011;4012;48.896;9.192;2023-04-01T00:32:28;1.47;;;0.77;;
7933;SDS011;4012;48.896;9.192;2023-04-01T00:34:55;0.80;;;0.77;;
7933;SDS011;4012;48.896;9.192;2023-04-01T00:37:21;0.70;;;0.70;;
7933;SDS011;4012;48.896;9.192;2023-04-01T00:39:47;1.60;;;0.83;;
7933;SDS011;4012;48.896;9.192;2023-04-01T00:42:13;2.43;;;0.97;;
7933;SDS011;4012;48.896;9.192;2023-04-01T00:44:39;1.13;;;0.80;;
7933;SDS011;4012;48.896;9.192;2023-04-01T00:47:05;1.07;;;0.63;;
7933;SDS011;4012;48.896;9.192;2023-04-01T00:49:38;2.20;;;0.90;;
7933;SDS011;4012;48.896;9.192;2023-04-01T00:52:05;2.87;;;0.80;;
7933;SDS011;4012;48.896;9.192;2023-04-01T00:54:33;3.07;;;0.80;;
7933;SDS011;4012;48.896;9.192;2023-04-01T00:59:52;1.10;;;0.93;;
7933;SDS011;4012;48.896;9.192;2023-04-01T01:02:20;1.33;;;1.10;;
7933;SDS011;4012;48.896;9.192;2023-04-01T01:04:46;0.80;;;0.80;;
7933;SDS011;4012;48.896;9.192;2023-04-01T01:12:37;2.13;;;1.23;;
7933;SDS011;4012;48.896;9.192;2023-04-01T01:15:07;1.80;;;0.80;;
7933;SDS011;4012;48.896;9.192;2023-04-01T01:33:42;2.17;;;0.83;;
7933;SDS011;4012;48.896;9.192;2023-04-01T01:36:15;0.50;;;0.50;;
7933;SDS011;4012;48.896;9.192;2023-04-01T01:38:43;3.33;;;1.07;;
7933;SDS011;4012;48.896;9.192;2023-04-01T01:41:10;1.33;;;1.23;;
7933;SDS011;4012;48.896;9.192;2023-04-01T01:43:40;2.93;;;0.80;;
7933;SDS011;4012;48.896;9.192;2023-04-01T01:46:11;2.17;;;0.80;;
7933;SDS011;4012;48.896;9.192;2023-04-01T01:48:40;3.47;;;1.27;;
7933;SDS011;4012;48.896;9.192;2023-04-01T01:51:07;1.00;;;0.90;;
7933;SDS011;4012;48.896;9.192;2023-04-01T01:53:33;2.10;;;1.00;;
7933;SDS011;4012;48.896;9.192;2023-04-01T01:55:59;2.30;;;0.93;;
7933;SDS011;4012;48.896;9.192;2023-04-01T01:58:32;1.90;;;1.00;;
7933;SDS011;4012;48.896;9.192;2023-04-01T02:01:06;1.27;;;0.90;;
7933;SDS011;4012;48.896;9.192;2023-04-01T02:03:37;1.60;;;0.80;;
7933;SDS011;4012;48.896;9.192;2023-04-01T02:06:09;2.13;;;1.13;;
7933;SDS011;4012;48.896;9.192;2023-04-01T02:08:50;2.27;;;0.87;;
7933;SDS011;4012;48.896;9.192;2023-04-01T02:11:36;0.50;;;0.50;;
7933;SDS011;4012;48.896;9.192;2023-04-01T02:16:31;1.10;;;0.87;;
7933;SDS011;4012;48.896;9.192;2023-04-01T02:19:05;1.97;;;1.00;;
7933;SDS011;4012;48.896;9.192;2023-04-01T02:21:32;0.90;;;0.70;;
7933;SDS011;4012;48.896;9.192;2023-04-01T02:24:00;1.90;;;0.90;;
7933;SDS011;4012;48.896;9.192;2023-04-01T02:26:29;1.77;;;0.90;;
7933;SDS011;4012;48.896;9.192;2023-04-01T02:28:55;0.50;;;0.50;;
7933;SDS011;4012;48.896;9.192;2023-04-01T02:31:22;3.70;;;1.03;;
7933;SDS011;4012;48.896;9.192;2023-04-01T02:33:48;2.40;;;0.90;;
7933;SDS011;4012;48.896;9.192;2023-04-01T02:36:15;0.60;;;0.60;;
7933;SDS011;4012;48.896;9.192;2023-04-01T02:38:42;0.80;;;0.60;;
7933;SDS011;4012;48.896;9.192;2023-04-01T02:41:09;2.07;;;0.80;;
7933;SDS011;4012;48.896;9.192;2023-04-01T02:43:35;2.43;;;0.77;;
7933;SDS011;4012;48.896;9.192;2023-04-01T02:46:01;1.50;;;0.70;;
7933;SDS011;4012;48.896;9.192;2023-04-01T02:48:27;1.50;;;0.80;;
7933;SDS011;4012;48.896;9.192;2023-04-01T02:50:53;1.37;;;0.97;;
7933;SDS011;4012;48.896;9.192;2023-04-01T02:53:19;0.63;;;0.60;;
7933;SDS011;4012;48.896;9.192;2023-04-01T02:55:45;1.23;;;0.60;;
7933;SDS011;4012;48.896;9.192;2023-04-01T02:58:11;0.73;;;0.50;;
7933;SDS011;4012;48.896;9.192;2023-04-01T03:00:36;1.30;;;0.70;;
7933;SDS011;4012;48.896;9.192;2023-04-01T03:03:03;0.87;;;0.70;;
7933;SDS011;4012;48.896;9.192;2023-04-01T03:05:29;0.60;;;0.60;;
7933;SDS011;4012;48.896;9.192;2023-04-01T03:07:55;1.80;;;0.50;;
7933;SDS011;4012;48.896;9.192;2023-04-01T03:10:20;1.30;;;0.87;;
7933;SDS011;4012;48.896;9.192;2023-04-01T03:12:46;1.03;;;0.57;;
7933;SDS011;4012;48.896;9.192;2023-04-01T03:15:12;0.50;;;0.50;;
7933;SDS011;4012;48.896;9.192;2023-04-01T03:17:39;1.93;;;1.07;;
7933;SDS011;4012;48.896;9.192;2023-04-01T03:20:06;0.70;;;0.70;;
7933;SDS011;4012;48.896;9.192;2023-04-01T03:22:33;2.63;;;0.80;;
7933;SDS011;4012;48.896;9.192;2023-04-01T03:25:00;0.57;;;0.53;;
7933;SDS011;4012;48.896;9.192;2023-04-01T03:27:26;2.50;;;0.70;;
7933;SDS011;4012;48.896;9.192;2023-04-01T03:29:52;2.80;;;0.80;;
7933;SDS011;4012;48.896;9.192;2023-04-01T03:32:17;1.20;;;0.60;;
7933;SDS011;4012;48.896;9.192;2023-04-01T03:34:43;2.77;;;0.60;;
7933;SDS011;4012;48.896;9.192;2023-04-01T03:37:08;2.63;;;0.60;;
7933;SDS011;4012;48.896;9.192;2023-04-01T03:39:34;0.73;;;0.73;;
7933;SDS011;4012;48.896;9.192;2023-04-01T03:42:00;1.40;;;0.60;;
7933;SDS011;4012;48.896;9.192;2023-04-01T03:44:26;1.47;;;0.70;;
7933;SDS011;4012;48.896;9.192;2023-04-01T03:46:55;1.20;;;1.00;;
7933;SDS011;4012;48.896;9.192;2023-04-01T03:49:20;1.03;;;0.60;;
7933;SDS011;4012;48.896;9.192;2023-04-01T03:51:46;0.30;;;0.30;;
7933;SDS011;4012;48.896;9.192;2023-04-01T03:54:11;0.60;;;0.60;;
7933;SDS011;4012;48.896;9.192;2023-04-01T03:56:37;1.07;;;0.60;;
7933;SDS011;4012;48.896;9.192;2023-04-01T03:59:04;0.77;;;0.77;;
7933;SDS011;4012;48.896;9.192;2023-04-01T04:01:31;1.07;;;0.60;;
7933;SDS011;4012;48.896;9.192;2023-04-01T04:03:56;1.77;;;0.90;;
7933;SDS011;4012;48.896;9.192;2023-04-01T04:06:22;1.53;;;0.90;;
7933;SDS011;4012;48.896;9.192;2023-04-01T04:08:49;0.70;;;0.70;;
7933;SDS011;4012;48.896;9.192;2023-04-01T04:11:15;1.30;;;0.87;;
7933;SDS011;4012;48.896;9.192;2023-04-01T04:13:40;0.60;;;0.60;;
7933;SDS011;4012;48.896;9.192;2023-04-01T04:16:07;1.50;;;0.70;;
7933;SDS011;4012;48.896;9.192;2023-04-01T04:18:34;0.70;;;0.70;;
7933;SDS011;4012;48.896;9.192;2023-04-01T04:21:01;1.23;;;0.63;;
7933;SDS011;4012;48.896;9.192;2023-04-01T04:23:27;0.90;;;0.67;;
7933;SDS011;4012;48.896;9.192;2023-04-01T04:25:58;1.67;;;0.60;;
7933;SDS011;4012;48.896;9.192;2023-04-01T04:28:35;2.67;;;0.60;;
7933;SDS011;4012;48.896;9.192;2023-04-01T04:31:01;0.80;;;0.80;;
7933;SDS011;4012;48.896;9.192;2023-04-01T04:33:27;1.70;;;0.70;;
7933;SDS011;4012;48.896;9.192;2023-04-01T04:35:55;0.73;;;0.70;;
7933;SDS011;4012;48.896;9.192;2023-04-01T04:38:21;0.50;;;0.50;;
7933;SDS011;4012;48.896;9.192;2023-04-01T04:40:47;0.70;;;0.70;;
7933;SDS011;4012;48.896;9.192;2023-04-01T04:43:13;0.60;;;0.47;;
7933;SDS011;4012;48.896;9.192;2023-04-01T04:45:40;0.63;;;0.60;;
7933;SDS011;4012;48.896;9.192;2023-04-01T04:48:09;0.40;;;0.40;;
7933;SDS011;4012;48.896;9.192;2023-04-01T04:50:41;0.63;;;0.60;;
7933;SDS011;4012;48.896;9.192;2023-04-01T04:53:09;1.57;;;0.60;;
7933;SDS011;4012;48.896;9.192;2023-04-01T04:55:35;2.20;;;1.10;;
7933;SDS011;4012;48.896;9.192;2023-04-01T04:58:01;0.60;;;0.50;;
7933;SDS011;4012;48.896;9.192;2023-04-01T05:00:26;0.50;;;0.50;;
7933;SDS011;4012;48.896;9.192;2023-04-01T05:02:52;0.50;;;0.50;;
7933;SDS011;4012;48.896;9.192;2023-04-01T05:05:18;1.50;;;0.50;;
7933;SDS011;4012;48.896;9.192;2023-04-01T05:07:43;0.80;;;0.60;;
7933;SDS011;4012;48.896;9.192;2023-04-01T05:10:09;0.67;;;0.63;;
7933;SDS011;4012;48.896;9.192;2023-04-01T05:12:35;1.30;;;0.50;;
7933;SDS011;4012;48.896;9.192;2023-04-01T05:15:07;0.57;;;0.57;;
7933;SDS011;4012;48.896;9.192;2023-04-01T05:17:33;1.80;;;0.80;;
7933;SDS011;4012;48.896;9.192;2023-04-01T05:19:59;2.10;;;0.50;;
7933;SDS011;4012;48.896;9.192;2023-04-01T05:22:25;0.70;;;0.70;;
7933;SDS011;4012;48.896;9.192;2023-04-01T05:24:51;0.93;;;0.73;;
7933;SDS011;4012;48.896;9.192;2023-04-01T05:27:16;1.67;;;0.60;;
7933;SDS011;4012;48.896;9.192;2023-04-01T05:29:42;2.83;;;0.70;;
7933;SDS011;4012;48.896;9.192;2023-04-01T05:32:07;3.67;;;1.00;;
7933;SDS011;4012;48.896;9.192;2023-04-01T05:34:33;2.10;;;0.70;;
7933;SDS011;4012;48.896;9.192;2023-04-01T05:36:59;0.47;;;0.47;;
7933;SDS011;4012;48.896;9.192;2023-04-01T05:39:24;3.07;;;0.60;;
7933;SDS011;4012;48.896;9.192;2023-04-01T05:41:50;0.60;;;0.60;;
7933;SDS011;4012;48.896;9.192;2023-04-01T05:44:15;0.90;;;0.80;;
7933;SDS011;4012;48.896;9.192;2023-04-01T05:46:41;8.23;;;1.17;;
7933;SDS011;4012;48.896;9.192;2023-04-01T05:49:07;1.07;;;0.80;;
7933;SDS011;4012;48.896;9.192;2023-04-01T05:51:33;0.57;;;0.50;;
7933;SDS011;4012;48.896;9.192;2023-04-01T05:53:58;0.37;;;0.37;;
7933;SDS011;4012;48.896;9.192;2023-04-01T05:56:24;2.57;;;0.90;;
7933;SDS011;4012;48.896;9.192;2023-04-01T05:58:50;0.70;;;0.70;;
7933;SDS011;4012;48.896;9.192;2023-04-01T06:01:18;0.83;;;0.73;;
7933;SDS011;4012;48.896;9.192;2023-04-01T06:03:43;1.07;;;0.73;;
7933;SDS011;4012;48.896;9.192;2023-04-01T06:06:16;0.73;;;0.67;;
7933;SDS011;4012;48.896;9.192;2023-04-01T06:08:51;0.50;;;0.50;;
7933;SDS011;4012;48.896;9.192;2023-04-01T06:34:01;1.83;;;0.70;;
7933;SDS011;4012;48.896;9.192;2023-04-01T06:37:03;4.03;;;0.70;;
7933;SDS011;4012;48.896;9.192;2023-04-01T06:39:53;0.53;;;0.50;;
7933;SDS011;4012;48.896;9.192;2023-04-01T06:42:44;2.23;;;0.47;;
7933;SDS011;4012;48.896;9.192;2023-04-01T06:48:34;0.77;;;0.77;;
7933;SDS011;4012;48.896;9.192;2023-04-01T06:54:15;0.60;;;0.60;;
7933;SDS011;4012;48.896;9.192;2023-04-01T06:56:45;3.70;;;0.90;;
7933;SDS011;4012;48.896;9.192;2023-04-01T06:59:19;0.90;;;0.63;;
7933;SDS011;4012;48.896;9.192;2023-04-01T07:01:53;0.60;;;0.60;;
7933;SDS011;4012;48.896;9.192;2023-04-01T07:09:57;1.10;;;0.60;;
7933;SDS011;4012;48.896;9.192;2023-04-01T07:15:00;0.70;;;0.53;;
7933;SDS011;4012;48.896;9.192;2023-04-01T07:17:31;0.93;;;0.80;;
7933;SDS011;4012;48.896;9.192;2023-04-01T07:20:03;1.50;;;0.83;;
7933;SDS011;4012;48.896;9.192;2023-04-01T07:22:38;2.00;;;0.70;;
7933;SDS011;4012;48.896;9.192;2023-04-01T07:25:11;1.27;;;0.83;;
7933;SDS011;4012;48.896;9.192;2023-04-01T07:27:37;1.33;;;0.97;;
7933;SDS011;4012;48.896;9.192;2023-04-01T07:30:06;1.13;;;0.50;;
7933;SDS011;4012;48.896;9.192;2023-04-01T07:32:42;1.20;;;0.67;;
7933;SDS011;4012;48.896;9.192;2023-04-01T07:35:21;0.60;;;0.60;;
7933;SDS011;4012;48.896;9.192;2023-04-01T07:43:22;1.07;;;0.97;;
7933;SDS011;4012;48.896;9.192;2023-04-01T07:48:26;0.53;;;0.50;;
7933;SDS011;4012;48.896;9.192;2023-04-01T07:51:00;1.60;;;0.70;;
7933;SDS011;4012;48.896;9.192;2023-04-01T07:56:28;1.93;;;0.70;;
7933;SDS011;4012;48.896;9.192;2023-04-01T08:01:49;0.70;;;0.70;;
7933;SDS011;4012;48.896;9.192;2023-04-01T08:07:18;1.33;;;1.13;;
7933;SDS011;4012;48.896;9.192;2023-04-01T08:25:40;1.57;;;1.07;;
7933;SDS011;4012;48.896;9.192;2023-04-01T08:28:30;0.97;;;0.70;;
7933;SDS011;4012;48.896;9.192;2023-04-01T08:34:15;0.63;;;0.63;;
7933;SDS011;4012;48.896;9.192;2023-04-01T08:36:51;0.77;;;0.70;;
7933;SDS011;4012;48.896;9.192;2023-04-01T08:44:40;0.97;;;0.67;;
7933;SDS011;4012;48.896;9.192;2023-04-01T08:47:19;2.93;;;1.30;;
7933;SDS011;4012;48.896;9.192;2023-04-01T09:00:54;0.57;;;0.57;;
7933;SDS011;4012;48.896;9.192;2023-04-01T09:03:37;1.97;;;0.77;;
7933;SDS011;4012;48.896;9.192;2023-04-01T09:14:04;1.20;;;0.77;;
7933;SDS011;4012;48.896;9.192;2023-04-01T09:25:15;0.70;;;0.70;;
7933;SDS011;4012;48.896;9.192;2023-04-01T09:27:56;1.10;;;0.63;;
7933;SDS011;4012;48.896;9.192;2023-04-01T09:39:17;0.60;;;0.60;;
7933;SDS011;4012;48.896;9.192;2023-04-01T09:45:09;0.63;;;0.63;;
7933;SDS011;4012;48.896;9.192;2023-04-01T09:47:43;1.07;;;0.90;;
7933;SDS011;4012;48.896;9.192;2023-04-01T09:53:22;0.40;;;0.40;;
7933;SDS011;4012;48.896;9.192;2023-04-01T10:05:05;0.60;;;0.60;;
7933;SDS011;4012;48.896;9.192;2023-04-01T10:13:54;1.20;;;1.10;;
7933;SDS011;4012;48.896;9.192;2023-04-01T10:25:18;0.63;;;0.63;;
7933;SDS011;4012;48.896;9.192;2023-04-01T11:01:38;0.70;;;0.70;;
7933;SDS011;4012;48.896;9.192;2023-04-01T11:12:26;1.10;;;0.53;;
7933;SDS011;4012;48.896;9.192;2023-04-01T11:37:37;0.43;;;0.43;;
7933;SDS011;4012;48.896;9.192;2023-04-01T11:40:20;0.70;;;0.70;;
7933;SDS011;4012;48.896;9.192;2023-04-01T11:43:32;1.40;;;1.00;;
7933;SDS011;4012;48.896;9.192;2023-04-01T11:46:15;0.53;;;0.53;;
7933;SDS011;4012;48.896;9.192;2023-04-01T11:52:14;1.30;;;1.10;;
7933;SDS011;4012;48.896;9.192;2023-04-01T11:58:05;1.43;;;0.90;;
7933;SDS011;4012;48.896;9.192;2023-04-01T12:01:13;1.07;;;0.90;;
7933;SDS011;4012;48.896;9.192;2023-04-01T12:06:21;0.60;;;0.60;;
7933;SDS011;4012;48.896;9.192;2023-04-01T12:13:59;0.50;;;0.50;;
7933;SDS011;4012;48.896;9.192;2023-04-01T12:16:39;0.47;;;0.47;;
7933;SDS011;4012;48.896;9.192;2023-04-01T12:24:53;1.60;;;0.73;;
7933;SDS011;4012;48.896;9.192;2023-04-01T12:33:03;0.57;;;0.57;;
7933;SDS011;4012;48.896;9.192;2023-04-01T12:35:50;2.03;;;1.40;;
7933;SDS011;4012;48.896;9.192;2023-04-01T12:51:41;1.67;;;1.03;;
7933;SDS011;4012;48.896;9.192;2023-04-01T12:57:20;0.70;;;0.70;;
7933;SDS011;4012;48.896;9.192;2023-04-01T13:05:37;0.60;;;0.60;;
7933;SDS011;4012;48.896;9.192;2023-04-01T13:08:25;0.50;;;0.50;;
7933;SDS011;4012;48.896;9.192;2023-04-01T13:17:30;0.70;;;0.70;;
7933;SDS011;4012;48.896;9.192;2023-04-01T13:24:04;0.80;;;0.77;;
7933;SDS011;4012;48.896;9.192;2023-04-01T13:26:29;0.50;;;0.50;;
7933;SDS011;4012;48.896;9.192;2023-04-01T13:29:21;0.80;;;0.80;;
7933;SDS011;4012;48.896;9.192;2023-04-01T13:32:00;2.23;;;0.47;;
7933;SDS011;4012;48.896;9.192;2023-04-01T13:53:45;0.70;;;0.70;;
7933;SDS011;4012;48.896;9.192;2023-04-01T13:56:41;0.60;;;0.60;;
7933;SDS011;4012;48.896;9.192;2023-04-01T13:59:32;0.37;;;0.37;;
7933;SDS011;4012;48.896;9.192;2023-04-01T14:04:49;0.40;;;0.40;;
7933;SDS011;4012;48.896;9.192;2023-04-01T14:10:26;0.63;;;0.63;;
7933;SDS011;4012;48.896;9.192;2023-04-01T14:13:01;0.50;;;0.50;;
7933;SDS011;4012;48.896;9.192;2023-04-01T14:15:42;0.50;;;0.50;;
7933;SDS011;4012;48.896;9.192;2023-04-01T14:23:51;0.40;;;0.40;;
7933;SDS011;4012;48.896;9.192;2023-04-01T14:32:18;0.90;;;0.60;;
7933;SDS011;4012;48.896;9.192;2023-04-01T14:34:59;0.40;;;0.40;;
7933;SDS011;4012;48.896;9.192;2023-04-01T14:40:54;0.77;;;0.77;;
7933;SDS011;4012;48.896;9.192;2023-04-01T14:51:49;0.60;;;0.60;;
7933;SDS011;4012;48.896;9.192;2023-04-01T14:54:21;0.50;;;0.50;;
7933;SDS011;4012;48.896;9.192;2023-04-01T14:59:46;2.03;;;1.70;;
7933;SDS011;4012;48.896;9.192;2023-04-01T15:19:10;1.33;;;1.20;;
7933;SDS011;4012;48.896;9.192;2023-04-01T15:22:03;0.83;;;0.80;;
7933;SDS011;4012;48.896;9.192;2023-04-01T15:25:05;0.63;;;0.63;;
7933;SDS011;4012;48.896;9.192;2023-04-01T15:27:32;1.03;;;1.00;;
7933;SDS011;4012;48.896;9.192;2023-04-01T15:41:15;0.80;;;0.80;;
7933;SDS011;4012;48.896;9.192;2023-04-01T15:43:49;1.27;;;0.73;;
7933;SDS011;4012;48.896;9.192;2023-04-01T15:51:54;0.73;;;0.70;;
7933;SDS011;4012;48.896;9.192;2023-04-01T16:05:55;1.23;;;0.93;;
7933;SDS011;4012;48.896;9.192;2023-04-01T16:11:18;1.03;;;0.90;;
7933;SDS011;4012;48.896;9.192;2023-04-01T16:19:47;1.90;;;1.07;;
7933;SDS011;4012;48.896;9.192;2023-04-01T16:22:34;0.90;;;0.90;;
7933;SDS011;4012;48.896;9.192;2023-04-01T16:27:52;0.93;;;0.93;;
7933;SDS011;4012;48.896;9.192;2023-04-01T16:41:47;1.13;;;0.73;;
7933;SDS011;4012;48.896;9.192;2023-04-01T16:44:21;0.70;;;0.70;;
7933;SDS011;4012;48.896;9.192;2023-04-01T16:46:50;0.87;;;0.87;;
7933;SDS011;4012;48.896;9.192;2023-04-01T16:58:55;1.83;;;1.07;;
7933;SDS011;4012;48.896;9.192;2023-04-01T17:01:37;2.03;;;1.10;;
7933;SDS011;4012;48.896;9.192;2023-04-01T17:04:16;2.33;;;1.07;;
7933;SDS011;4012;48.896;9.192;2023-04-01T17:12:13;1.23;;;1.10;;
7933;SDS011;4012;48.896;9.192;2023-04-01T17:22:55;1.83;;;1.33;;
7933;SDS011;4012;48.896;9.192;2023-04-01T17:40:19;1.80;;;1.30;;
7933;SDS011;4012;48.896;9.192;2023-04-01T17:42:55;2.67;;;1.50;;
7933;SDS011;4012;48.896;9.192;2023-04-01T17:53:47;2.43;;;2.20;;
7933;SDS011;4012;48.896;9.192;2023-04-01T17:56:45;7.67;;;2.37;;
7933;SDS011;4012;48.896;9.192;2023-04-01T17:59:32;4.83;;;2.73;;
7933;SDS011;4012;48.896;9.192;2023-04-01T18:07:34;1.50;;;1.10;;
7933;SDS011;4012;48.896;9.192;2023-04-01T18:18:58;2.20;;;1.20;;
7933;SDS011;4012;48.896;9.192;2023-04-01T18:27:04;2.93;;;1.57;;
7933;SDS011;4012;48.896;9.192;2023-04-01T18:34:40;5.87;;;3.73;;
7933;SDS011;4012;48.896;9.192;2023-04-01T18:42:50;1.30;;;1.20;;
7933;SDS011;4012;48.896;9.192;2023-04-01T18:54:19;2.90;;;2.23;;
7933;SDS011;4012;48.896;9.192;2023-04-01T18:57:10;1.33;;;1.13;;
7933;SDS011;4012;48.896;9.192;2023-04-01T18:59:55;2.00;;;1.80;;
7933;SDS011;4012;48.896;9.192;2023-04-01T19:02:34;1.93;;;1.73;;
7933;SDS011;4012;48.896;9.192;2023-04-01T19:05:17;5.32;;;3.05;;
7933;SDS011;4012;48.896;9.192;2023-04-01T19:10:30;3.23;;;2.13;;
7933;SDS011;4012;48.896;9.192;2023-04-01T19:15:44;2.40;;;1.43;;
7933;SDS011;4012;48.896;9.192;2023-04-01T19:26:28;2.47;;;1.50;;
7933;SDS011;4012;48.896;9.192;2023-04-01T19:29:13;2.67;;;1.80;;
7933;SDS011;4012;48.896;9.192;2023-04-01T19:31:52;2.63;;;1.47;;
7933;SDS011;4012;48.896;9.192;2023-04-01T19:39:48;3.30;;;2.47;;
7933;SDS011;4012;48.896;9.192;2023-04-01T19:50:31;2.07;;;1.77;;
7933;SDS011;4012;48.896;9.192;2023-04-01T19:53:01;2.70;;;1.50;;
7933;SDS011;4012;48.896;9.192;2023-04-01T19:58:24;1.97;;;1.43;;
7933;SDS011;4012;48.896;9.192;2023-04-01T20:01:00;1.80;;;1.67;;
7933;SDS011;4012;48.896;9.192;2023-04-01T20:06:10;4.17;;;1.40;;
7933;SDS011;4012;48.896;9.192;2023-04-01T20:15:20;2.50;;;1.23;;
7933;SDS011;4012;48.896;9.192;2023-04-01T20:21:02;4.90;;;2.20;;
7933;SDS011;4012;48.896;9.192;2023-04-01T20:23:53;3.30;;;2.00;;
7933;SDS011;4012;48.896;9.192;2023-04-01T20:26:32;5.57;;;2.27;;
7933;SDS011;4012;48.896;9.192;2023-04-01T20:29:17;1.30;;;1.20;;
7933;SDS011;4012;48.896;9.192;2023-04-01T20:32:11;1.47;;;1.10;;
7933;SDS011;4012;48.896;9.192;2023-04-01T20:34:40;1.77;;;1.43;;
7933;SDS011;4012;48.896;9.192;2023-04-01T20:45:30;1.73;;;1.47;;
7933;SDS011;4012;48.896;9.192;2023-04-01T20:48:48;1.93;;;1.30;;
7933;SDS011;4012;48.896;9.192;2023-04-01T20:51:24;4.30;;;1.23;;
7933;SDS011;4012;48.896;9.192;2023-04-01T20:54:11;1.70;;;1.40;;
7933;SDS011;4012;48.896;9.192;2023-04-01T20:57:05;2.17;;;1.20;;
7933;SDS011;4012;48.896;9.192;2023-04-01T21:10:42;0.97;;;0.97;;
7933;SDS011;4012;48.896;9.192;2023-04-01T21:21:12;1.07;;;0.97;;
7933;SDS011;4012;48.896;9.192;2023-04-01T21:23:58;1.03;;;1.00;;
7933;SDS011;4012;48.896;9.192;2023-04-01T21:26:46;1.63;;;1.47;;
7933;SDS011;4012;48.896;9.192;2023-04-01T21:29:55;3.40;;;2.60;;
7933;SDS011;4012;48.896;9.192;2023-04-01T21:32:46;1.30;;;1.20;;
7933;SDS011;4012;48.896;9.192;2023-04-01T21:41:32;2.60;;;1.30;;
7933;SDS011;4012;48.896;9.192;2023-04-01T21:47:02;1.73;;;1.13;;
7933;SDS011;4012;48.896;9.192;2023-04-01T21:53:06;1.73;;;1.20;;
7933;SDS011;4012;48.896;9.192;2023-04-01T21:56:09;1.80;;;1.03;;
7933;SDS011;4012;48.896;9.192;2023-04-01T22:07:25;1.07;;;1.00;;
7933;SDS011;4012;48.896;9.192;2023-04-01T22:12:38;1.10;;;1.00;;
7933;SDS011;4012;48.896;9.192;2023-04-01T22:18:13;1.00;;;0.83;;
7933;SDS011;4012;48.896;9.192;2023-04-01T22:20:50;0.97;;;0.90;;
7933;SDS011;4012;48.896;9.192;2023-04-01T22:23:47;2.20;;;0.90;;
7933;SDS011;4012;48.896;9.192;2023-04-01T22:26:33;0.87;;;0.87;;
7933;SDS011;4012;48.896;9.192;2023-04-01T22:32:22;1.10;;;1.00;;
7933;SDS011;4012;48.896;9.192;2023-04-01T22:34:32;1.40;;;0.93;;
7933;SDS011;4012;48.896;9.192;2023-04-01T22:43:05;1.20;;;1.20;;
7933;SDS011;4012;48.896;9.192;2023-04-01T22:48:20;1.53;;;0.90;;
7933;SDS011;4012;48.896;9.192;2023-04-01T22:53:52;1.27;;;1.00;;
7933;SDS011;4012;48.896;9.192;2023-04-01T22:56:21;1.20;;;1.10;;
7933;SDS011;4012;48.896;9.192;2023-04-01T23:02:11;2.33;;;1.20;;
7933;SDS011;4012;48.896;9.192;2023-04-01T23:04:43;2.00;;;1.10;;
7933;SDS011;4012;48.896;9.192;2023-04-01T23:08:00;0.87;;;0.80;;
7933;SDS011;4012;48.896;9.192;2023-04-01T23:10:02;2.23;;;0.97;;
7933;SDS011;4012;48.896;9.192;2023-04-01T23:12:36;0.80;;;0.80;;
7933;SDS011;4012;48.896;9.192;2023-04-01T23:15:03;1.37;;;1.00;;
7933;SDS011;4012;48.896;9.192;2023-04-01T23:26:04;0.80;;;0.80;;
7933;SDS011;4012;48.896;9.192;2023-04-01T23:28:41;1.50;;;1.00;;
7933;SDS011;4012;48.896;9.192;2023-04-01T23:33:53;0.60;;;0.60;;
7933;SDS011;4012;48.896;9.192;2023-04-01T23:36:23;0.87;;;0.87;;
7933;SDS011;4012;48.896;9.192;2023-04-01T23:38:49;0.57;;;0.57;;
7933;SDS011;4012;48.896;9.192;2023-04-01T23:41:19;1.20;;;0.83;;
7933;SDS011;4012;48.896;9.192;2023-04-01T23:43:51;0.77;;;0.73;;
7933;SDS011;4012;48.896;9.192;2023-04-01T23:46:25;2.53;;;0.70;;
7933;SDS011;4012;48.896;9.192;2023-04-01T23:48:54;0.70;;;0.70;;
7933;SDS011;4012;48.896;9.192;2023-04-01T23:51:27;2.57;;;1.60;;
7933;SDS011;4012;48.896;9.192;2023-04-01T23:56:44;0.87;;;0.70;;
7933;SDS011;4012;48.896;9.192;2023-04-01T23:59:22;0.60;;;0.60;;
